Time;durP1;ratioP1;P1;durP2;ratioP2;P2;SDS_P1;SDS_P2;PMS_P1;PMS_P2;Temp;Humidity;BMP_temperature;BMP_pressure;BME280_temperature;BME280_humidity;BME280_pressure;Samples;Min_cycle;Max_cycle;Signal;HPM_P1;HPM_P2
2022/04/23 00:02:24;;;;;;;31.02;16.48;;;;;;;2.75;100.00;98253.94;4400856;32;20035;-74
2022/04/23 00:04:50;;;;;;;44.92;16.17;;;;;;;2.59;100.00;98234.06;4401531;32;20043;-73
2022/04/23 00:07:17;;;;;;;46.45;18.77;;;;;;;2.48;100.00;98211.66;4399759;32;20412;-77
2022/04/23 00:09:43;;;;;;;36.75;17.33;;;;;;;2.59;100.00;98220.75;4399958;32;20080;-74
2022/04/23 00:12:10;;;;;;;40.42;17.08;;;;;;;2.73;100.00;98240.87;4387856;32;20444;-73
2022/04/23 00:14:36;;;;;;;26.33;14.20;;;;;;;2.82;100.00;98233.41;4387671;32;20108;-73
2022/04/23 00:17:03;;;;;;;46.97;19.73;;;;;;;2.95;100.00;98226.34;4401396;32;20077;-73
2022/04/23 00:19:30;;;;;;;37.40;18.33;;;;;;;3.09;100.00;98233.16;4385950;32;20073;-75
2022/04/23 00:21:56;;;;;;;42.58;20.23;;;;;;;3.05;100.00;98226.69;4387483;32;20030;-73
2022/04/23 00:24:22;;;;;;;50.45;22.05;;;;;;;2.50;100.00;98150.31;4401236;32;20039;-72
2022/04/23 00:26:49;;;;;;;37.85;16.73;;;;;;;3.02;100.00;98227.13;4387281;32;20060;-72
2022/04/23 00:29:17;;;;;;;31.42;15.13;;;;;;;3.02;100.00;98232.44;4387601;32;20039;-73
2022/04/23 00:31:43;;;;;;;20.15;11.07;;;;;;;2.84;100.00;98166.72;4397720;32;20068;-73
2022/04/23 00:34:10;;;;;;;21.55;10.88;;;;;;;3.38;100.00;98226.31;4401200;32;20069;-74
2022/04/23 00:36:37;;;;;;;22.42;11.48;;;;;;;3.32;100.00;98168.66;4401112;32;20038;-74
2022/04/23 00:39:05;;;;;;;22.00;10.50;;;;;;;3.47;100.00;98165.59;4399623;32;20027;-72
2022/04/23 00:41:45;;;;;;;21.45;11.02;;;;;;;3.89;100.00;98216.22;4398912;32;20082;-74
2022/04/23 00:44:12;;;;;;;23.62;11.70;;;;;;;4.07;100.00;98219.88;4400666;32;20492;-74
2022/04/23 00:46:39;;;;;;;23.23;12.18;;;;;;;4.13;100.00;98216.31;4399545;32;20072;-74
2022/04/23 00:49:08;;;;;;;41.50;18.27;;;;;;;4.00;100.00;98215.47;4387107;32;20038;-78
2022/04/23 00:51:36;;;;;;;44.67;20.02;;;;;;;3.90;100.00;98207.22;4386445;32;20042;-74
2022/04/23 00:54:05;;;;;;;45.65;18.85;;;;;;;3.70;100.00;98207.50;4401184;32;20358;-74
2022/04/23 00:56:31;;;;;;;28.77;14.60;;;;;;;3.52;100.00;98208.31;4387202;32;20247;-74
2022/04/23 00:58:58;;;;;;;22.85;10.40;;;;;;;3.33;100.00;98212.03;4387113;32;20343;-74
2022/04/23 01:01:25;;;;;;;42.72;18.45;;;;;;;3.46;100.00;98211.88;4397838;32;20050;-76
2022/04/23 01:03:53;;;;;;;46.15;17.33;;;;;;;3.44;100.00;98187.34;4387430;32;20083;-73
2022/04/23 01:06:20;;;;;;;40.88;18.08;;;;;;;3.31;100.00;98206.12;4400545;32;20038;-74
2022/04/23 01:08:47;;;;;;;46.67;20.08;;;;;;;3.09;100.00;98195.94;4400517;32;20097;-74
2022/04/23 01:11:13;;;;;;;44.38;19.40;;;;;;;2.70;100.00;98158.09;4398459;32;20043;-77
2022/04/23 01:13:43;;;;;;;37.97;18.35;;;;;;;2.81;100.00;98186.63;4400677;32;20039;-74
2022/04/23 01:16:10;;;;;;;34.78;15.73;;;;;;;2.63;100.00;98160.84;4386785;32;20031;-74
2022/04/23 01:18:41;;;;;;;40.05;16.20;;;;;;;2.91;100.00;98202.87;4400903;32;20552;-74
2022/04/23 01:21:13;;;;;;;37.40;19.58;;;;;;;3.01;100.00;98201.53;4398016;32;20035;-77
2022/04/23 01:23:42;;;;;;;27.92;13.75;;;;;;;2.91;100.00;98162.97;4400984;32;20462;-74
2022/04/23 01:26:10;;;;;;;19.00;10.90;;;;;;;3.19;100.00;98190.91;4400353;32;20039;-74
2022/04/23 01:28:37;;;;;;;15.20;9.00;;;;;;;3.35;100.00;98204.63;4386016;32;20023;-74
2022/04/23 01:31:05;;;;;;;20.35;10.63;;;;;;;3.42;100.00;98198.22;4384417;32;20034;-77
2022/04/23 01:33:35;;;;;;;24.90;11.12;;;;;;;3.52;100.00;98189.69;4400402;32;20082;-74
2022/04/23 01:36:02;;;;;;;32.45;12.73;;;;;;;3.32;100.00;98141.22;4399813;32;20035;-74
2022/04/23 01:38:29;;;;;;;27.87;13.23;;;;;;;3.62;100.00;98189.97;4372350;32;20031;-74
2022/04/23 01:40:55;;;;;;;32.00;14.43;;;;;;;3.63;100.00;98178.28;4385741;32;20042;-74
2022/04/23 01:43:22;;;;;;;37.38;16.85;;;;;;;3.71;100.00;98187.00;4370116;32;20111;-75
2022/04/23 01:45:48;;;;;;;42.80;17.60;;;;;;;3.75;100.00;98183.66;4385328;32;20088;-74
2022/04/23 01:48:15;;;;;;;39.70;17.25;;;;;;;3.75;100.00;98172.19;4385561;32;20049;-73
2022/04/23 01:50:41;;;;;;;47.33;18.77;;;;;;;3.76;100.00;98168.50;4390744;32;20105;-74
2022/04/23 01:53:08;;;;;;;36.40;15.32;;;;;;;3.79;100.00;98174.16;4386216;32;20154;-74
2022/04/23 01:55:34;;;;;;;41.63;17.05;;;;;;;3.77;100.00;98176.25;4399485;32;20046;-73
2022/04/23 01:58:01;;;;;;;46.22;17.42;;;;;;;3.78;100.00;98174.41;4400460;32;20027;-74
2022/04/23 02:00:28;;;;;;;38.30;17.75;;;;;;;3.43;100.00;98119.16;4400000;32;20077;-74
2022/04/23 02:02:57;;;;;;;42.15;16.58;;;;;;;3.73;100.00;98174.25;4400654;32;20065;-74
2022/04/23 02:05:24;;;;;;;40.05;18.35;;;;;;;3.67;100.00;98180.50;4384654;32;20418;-75
2022/04/23 02:07:50;;;;;;;37.58;17.27;;;;;;;3.68;100.00;98176.81;4400711;32;20042;-73
2022/04/23 02:10:17;;;;;;;38.72;17.48;;;;;;;3.25;100.00;98131.47;4385823;32;20084;-73
2022/04/23 02:12:45;;;;;;;39.92;18.77;;;;;;;3.38;100.00;98161.63;4402120;32;20044;-75
2022/04/23 02:15:14;;;;;;;46.75;17.75;;;;;;;3.21;100.00;98148.94;4387963;32;20061;-75
2022/04/23 02:17:43;;;;;;;42.00;19.15;;;;;;;3.29;100.00;98155.81;4389661;32;20035;-73
2022/04/23 02:20:12;;;;;;;30.70;14.60;;;;;;;3.27;100.00;98166.66;4403082;32;20027;-73
2022/04/23 02:22:38;;;;;;;29.87;15.30;;;;;;;3.26;100.00;98145.59;4402734;32;20031;-74
2022/04/23 02:25:06;;;;;;;35.70;16.48;;;;;;;3.24;100.00;98135.19;4403144;32;20074;-74
2022/04/23 02:27:43;;;;;;;33.65;15.13;;;;;;;3.41;100.00;98161.97;4384552;32;20074;-76
2022/04/23 02:30:12;;;;;;;27.48;14.38;;;;;;;3.31;100.00;98118.34;4387313;32;20423;-74
2022/04/23 02:32:39;;;;;;;39.22;16.75;;;;;;;3.58;100.00;98151.53;4387880;32;20035;-74
2022/04/23 02:35:06;;;;;;;33.75;17.20;;;;;;;3.56;100.00;98158.94;4386674;32;20019;-75
2022/04/23 02:37:36;;;;;;;37.67;17.50;;;;;;;3.40;100.00;98164.87;4385902;32;20087;-76
2022/04/23 02:40:06;;;;;;;37.38;15.65;;;;;;;3.21;100.00;98162.25;4385187;32;20093;-74
2022/04/23 02:42:33;;;;;;;34.15;12.37;;;;;;;2.87;100.00;98116.59;4386678;32;20044;-74
2022/04/23 02:45:03;;;;;;;29.60;13.57;;;;;;;3.18;100.00;98154.69;4373729;32;20024;-75
2022/04/23 02:47:40;;;;;;;35.95;13.93;;;;;;;3.31;100.00;98163.56;4385921;32;20031;-77
2022/04/23 02:50:07;;;;;;;31.12;14.27;;;;;;;3.12;100.00;98115.69;4387135;32;20042;-74
2022/04/23 02:52:33;;;;;;;28.10;14.43;;;;;;;3.44;100.00;98150.06;4387684;32;20065;-75
2022/04/23 02:54:59;;;;;;;38.22;15.88;;;;;;;3.54;100.00;98155.69;4387220;32;20166;-77
2022/04/23 02:57:26;;;;;;;36.53;15.35;;;;;;;3.01;100.00;98060.59;4386325;32;20042;-74
2022/04/23 02:59:52;;;;;;;31.55;15.27;;;;;;;3.69;100.00;98149.16;4385670;32;20820;-74
2022/04/23 03:02:19;;;;;;;36.22;16.85;;;;;;;3.68;100.00;98140.31;4387649;32;20027;-74
2022/04/23 03:04:45;;;;;;;36.33;16.23;;;;;;;3.78;100.00;98150.44;4385482;32;20055;-74
2022/04/23 03:07:12;;;;;;;35.40;16.40;;;;;;;3.69;100.00;98125.19;4373160;32;20090;-77
2022/04/23 03:09:38;;;;;;;32.88;15.75;;;;;;;3.48;100.00;98091.88;4385841;32;20035;-73
2022/04/23 03:12:05;;;;;;;34.25;16.50;;;;;;;3.58;100.00;98130.22;4386267;32;20065;-74
2022/04/23 03:14:32;;;;;;;45.00;15.25;;;;;;;3.42;100.00;98104.25;4386980;32;20051;-73
2022/04/23 03:16:58;;;;;;;27.80;13.60;;;;;;;3.56;100.00;98145.62;4387209;32;20064;-74
2022/04/23 03:19:25;;;;;;;28.83;14.55;;;;;;;3.21;100.00;98093.06;4385758;32;20388;-77
2022/04/23 03:21:53;;;;;;;31.37;15.70;;;;;;;3.25;100.00;98099.53;4386245;32;20078;-74
2022/04/23 03:24:19;;;;;;;33.63;15.23;;;;;;;3.57;100.00;98139.25;4385469;32;20040;-73
2022/04/23 03:26:46;;;;;;;33.03;15.90;;;;;;;3.59;100.00;98139.03;4387387;32;20391;-74
2022/04/23 03:29:20;;;;;;;35.92;15.05;;;;;;;3.28;100.00;98088.47;4385348;32;20057;-77
2022/04/23 03:31:50;;;;;;;29.30;14.45;;;;;;;3.66;100.00;98144.28;4371054;32;20108;-74
2022/04/23 03:34:18;;;;;;;27.02;13.82;;;;;;;3.62;100.00;98142.06;4386599;32;20462;-75
2022/04/23 03:36:44;;;;;;;26.85;12.70;;;;;;;3.47;100.00;98123.03;4387105;32;20384;-74
2022/04/23 03:39:11;;;;;;;25.92;14.10;;;;;;;3.62;100.00;98136.75;4386970;32;20371;-74
2022/04/23 03:41:37;;;;;;;32.28;14.57;;;;;;;3.34;100.00;98091.28;4382773;32;20026;-74
2022/04/23 03:44:04;;;;;;;26.98;13.38;;;;;;;3.69;100.00;98136.63;4373300;32;20065;-74
2022/04/23 03:46:31;;;;;;;27.40;14.87;;;;;;;3.68;100.00;98128.88;4386463;32;20349;-73
2022/04/23 03:48:58;;;;;;;24.15;12.95;;;;;;;3.74;100.00;98135.97;4401416;32;20081;-74
2022/04/23 03:51:24;;;;;;;27.08;13.68;;;;;;;3.71;100.00;98139.88;4387926;32;20042;-74
2022/04/23 03:53:51;;;;;;;31.55;14.90;;;;;;;3.25;100.00;98059.63;4400553;32;20042;-74
2022/04/23 03:56:18;;;;;;;30.65;15.40;;;;;;;3.78;100.00;98142.44;4400737;32;20043;-73
2022/04/23 03:58:45;;;;;;;26.65;13.73;;;;;;;3.72;100.00;98124.69;4402137;32;20027;-74
2022/04/23 04:01:12;;;;;;;31.42;14.32;;;;;;;3.75;100.00;98129.56;4386412;32;20065;-73
2022/04/23 04:03:38;;;;;;;30.65;14.13;;;;;;;3.73;100.00;98126.34;4400089;32;20344;-76
2022/04/23 04:06:04;;;;;;;28.73;13.68;;;;;;;3.53;100.00;98084.84;4399696;32;20035;-75
2022/04/23 04:08:31;;;;;;;27.25;14.25;;;;;;;3.62;100.00;98104.78;4402279;32;20383;-73
2022/04/23 04:10:58;;;;;;;27.17;13.75;;;;;;;3.63;100.00;98101.06;4400254;32;20433;-74
2022/04/23 04:13:31;;;;;;;24.27;12.68;;;;;;;3.64;100.00;98094.72;4399762;32;20061;-73
2022/04/23 04:15:58;;;;;;;23.73;12.50;;;;;;;3.97;100.00;98144.00;4401046;32;20092;-73
2022/04/23 04:18:24;;;;;;;26.87;12.15;;;;;;;4.05;100.00;98134.06;4400173;32;20348;-74
2022/04/23 04:20:53;;;;;;;26.55;13.48;;;;;;;4.06;100.00;98135.69;4401136;32;20380;-73
2022/04/23 04:23:20;;;;;;;29.33;13.88;;;;;;;4.13;100.00;98141.72;4401357;32;20072;-73
2022/04/23 04:25:47;;;;;;;25.45;14.00;;;;;;;3.94;100.00;98099.19;4398605;32;20388;-73
2022/04/23 04:28:13;;;;;;;25.20;12.77;;;;;;;4.17;100.00;98126.91;4401758;32;20387;-73
2022/04/23 04:33:25;;;;;;;22.90;13.70;;;;;;;4.31;100.00;98122.97;4399801;32;20038;-75
2022/04/23 04:35:52;;;;;;;30.85;14.63;;;;;;;4.22;100.00;98108.34;4390466;32;20113;-73
2022/04/23 04:38:18;;;;;;;29.52;13.57;;;;;;;4.39;100.00;98123.66;4386338;32;20105;-73
2022/04/23 04:40:46;;;;;;;28.33;13.70;;;;;;;4.12;100.00;98081.50;4385915;32;20035;-73
2022/04/23 04:43:12;;;;;;;32.55;16.10;;;;;;;4.49;100.00;98129.22;4386138;32;20098;-74
2022/04/23 04:45:38;;;;;;;29.15;15.10;;;;;;;4.52;100.00;98136.75;4383489;32;20051;-74
2022/04/23 04:48:11;;;;;;;37.13;16.40;;;;;;;4.45;100.00;98123.56;4390332;32;20072;-73
2022/04/23 04:50:40;;;;;;;49.05;19.02;;;;;;;4.50;100.00;98134.34;4384490;32;20046;-73
2022/04/23 04:53:06;;;;;;;34.15;17.15;;;;;;;4.50;100.00;98146.84;4386074;32;20038;-73
2022/04/23 04:55:34;;;;;;;30.85;14.13;;;;;;;4.47;100.00;98126.78;4383962;32;20070;-73
2022/04/23 04:58:00;;;;;;;32.10;12.88;;;;;;;4.59;100.00;98137.44;4385925;32;20059;-73
2022/04/23 05:00:27;;;;;;;29.12;13.82;;;;;;;4.64;100.00;98131.41;4383895;32;20090;-74
2022/04/23 05:02:54;;;;;;;29.90;13.48;;;;;;;4.42;100.00;98104.53;4385731;32;20023;-73
2022/04/23 05:05:20;;;;;;;20.65;12.80;;;;;;;4.69;100.00;98139.53;4384064;32;20471;-77
2022/04/23 05:07:47;;;;;;;25.23;13.43;;;;;;;4.67;100.00;98125.63;4386038;32;20880;-73
2022/04/23 05:10:13;;;;;;;24.67;13.60;;;;;;;4.84;100.00;98133.72;4384136;32;20154;-73
2022/04/23 05:12:40;;;;;;;22.48;12.48;;;;;;;4.64;100.00;98094.91;4386019;32;20392;-73
2022/04/23 05:15:07;;;;;;;25.58;12.85;;;;;;;4.86;100.00;98135.09;4384283;32;20111;-73
2022/04/23 05:17:37;;;;;;;24.58;12.27;;;;;;;4.94;100.00;98135.78;4387101;32;20060;-73
2022/04/23 05:20:04;;;;;;;29.50;13.10;;;;;;;4.70;100.00;98088.63;4396451;32;20113;-73
2022/04/23 05:22:31;;;;;;;25.12;12.82;;;;;;;5.08;100.00;98127.28;4384853;32;20060;-73
2022/04/23 05:24:59;;;;;;;25.75;11.70;;;;;;;5.13;100.00;98144.47;4386796;32;20104;-74
2022/04/23 05:27:26;;;;;;;27.30;13.62;;;;;;;5.07;100.00;98144.38;4381989;32;20046;-72
2022/04/23 05:29:52;;;;;;;25.42;11.10;;;;;;;5.15;100.00;98134.34;4380651;32;20335;-74
2022/04/23 05:32:18;;;;;;;28.38;12.23;;;;;;;5.11;100.00;98131.34;4385034;32;20071;-73
2022/04/23 05:34:51;;;;;;;26.87;13.23;;;;;;;5.02;100.00;98101.53;4396593;32;20065;-73
2022/04/23 05:37:18;;;;;;;25.00;12.90;;;;;;;5.44;100.00;98152.03;4400743;32;20038;-72
2022/04/23 05:39:44;;;;;;;27.92;9.73;;;;;;;5.22;100.00;98097.69;4397296;32;20105;-74
2022/04/23 05:42:11;;;;;;;24.87;13.10;;;;;;;5.37;100.00;98103.28;4399224;32;20073;-71
2022/04/23 05:44:37;;;;;;;27.83;11.70;;;;;;;5.49;100.00;98099.75;4386367;32;20360;-72
2022/04/23 05:47:04;;;;;;;19.75;11.18;;;;;;;5.71;100.00;98129.25;4385953;32;20040;-73
2022/04/23 05:49:30;;;;;;;22.23;10.80;;;;;;;5.87;100.00;98149.03;4387764;32;20068;-74
2022/04/23 05:51:57;;;;;;;18.90;11.18;;;;;;;5.91;100.00;98155.53;4386121;32;20369;-75
2022/04/23 05:54:23;;;;;;;18.50;11.25;;;;;;;5.75;100.00;98112.50;4401402;32;20083;-73
2022/04/23 05:56:50;;;;;;;19.85;10.15;;;;;;;5.95;100.00;98109.41;4402566;32;20038;-74
2022/04/23 05:59:17;;;;;;;21.58;10.85;;;;;;;5.96;100.00;98112.88;4388033;32;20039;-74
2022/04/23 06:01:43;;;;;;;18.08;10.63;;;;;;;5.86;100.00;98110.03;4399924;32;20104;-71
2022/04/23 06:04:11;;;;;;;15.88;10.02;;;;;;;6.18;100.00;98151.22;4392142;32;20051;-75
2022/04/23 06:06:37;;;;;;;20.95;10.60;;;;;;;6.31;100.00;98150.06;4393064;32;20064;-73
2022/04/23 06:09:04;;;;;;;23.90;11.32;;;;;;;6.14;100.00;98112.66;4388384;32;20031;-72
2022/04/23 06:11:31;;;;;;;16.23;9.57;;;;;;;6.39;100.00;98151.53;4388069;32;20068;-73
2022/04/23 06:13:57;;;;;;;21.30;10.50;;;;;;;6.08;100.00;98107.47;4401062;32;20046;-74
2022/04/23 06:16:24;;;;;;;22.60;10.77;;;;;;;6.38;100.00;98147.22;4394673;32;20035;-73
2022/04/23 06:18:50;;;;;;;21.23;11.48;;;;;;;6.21;100.00;98106.31;4389524;32;20039;-74
2022/04/23 06:21:17;;;;;;;18.35;10.10;;;;;;;6.47;100.00;98153.78;4389094;32;20102;-73
2022/04/23 06:23:44;;;;;;;18.67;10.85;;;;;;;6.48;100.00;98150.06;4402777;32;20399;-72
2022/04/23 06:26:10;;;;;;;14.10;9.25;;;;;;;6.63;100.00;98151.38;4401285;32;20340;-75
2022/04/23 06:28:37;;;;;;;18.92;9.73;;;;;;;6.69;100.00;98142.34;4401131;32;20031;-72
2022/04/23 06:31:03;;;;;;;13.98;9.45;;;;;;;6.79;100.00;98134.47;4402427;32;20043;-72
2022/04/23 06:33:30;;;;;;;17.40;10.25;;;;;;;6.63;100.00;98089.84;4388401;32;20462;-74
2022/04/23 06:35:56;;;;;;;15.90;9.65;;;;;;;6.98;100.00;98134.19;4401053;32;20050;-72
2022/04/23 06:38:22;;;;;;;13.15;8.55;;;;;;;6.74;100.00;98099.62;4387592;32;20120;-75
2022/04/23 06:40:49;;;;;;;16.65;9.40;;;;;;;7.10;100.00;98134.88;4384590;32;20057;-73
2022/04/23 06:43:16;;;;;;;18.12;9.85;;;;;;;7.24;100.00;98141.47;4372897;32;20039;-72
2022/04/23 06:45:42;;;;;;;15.93;8.52;;;;;;;7.42;100.00;98139.53;4386628;32;20405;-72
2022/04/23 06:48:09;;;;;;;16.15;8.95;;;;;;;7.17;100.00;98103.34;4386250;32;20414;-73
2022/04/23 06:50:36;;;;;;;14.20;8.82;;;;;;;7.35;100.00;98109.44;4386192;32;20039;-74
2022/04/23 06:53:04;;;;;;;14.02;7.78;;;;;;;7.20;100.00;98108.22;4384832;32;20408;-73
2022/04/23 06:55:31;;;;;;;14.60;8.00;;;;;;;7.55;100.00;98141.81;4386950;32;20039;-72
2022/04/23 06:57:57;;;;;;;14.23;8.65;;;;;;;7.64;100.00;98140.31;4386479;32;20039;-74
2022/04/23 07:00:24;;;;;;;9.77;6.72;;;;;;;7.54;100.00;98108.03;4386270;32;20053;-73
2022/04/23 07:02:51;;;;;;;14.55;8.38;;;;;;;7.73;100.00;98139.84;4387002;32;20106;-73
2022/04/23 07:05:18;;;;;;;12.23;7.07;;;;;;;8.03;100.00;98162.66;4385629;32;20051;-73
2022/04/23 07:07:59;;;;;;;12.30;6.78;;;;;;;7.95;100.00;98115.66;4386634;32;20380;-73
2022/04/23 07:10:27;;;;;;;11.40;7.20;;;;;;;8.10;100.00;98114.97;4397428;32;20071;-76
2022/04/23 07:12:53;;;;;;;16.90;7.28;;;;;;;8.34;100.00;98150.31;4399882;32;20112;-73
2022/04/23 07:15:21;;;;;;;11.65;6.93;;;;;;;8.07;100.00;98121.66;4387388;32;20072;-73
2022/04/23 07:17:49;;;;;;;11.12;5.78;;;;;;;8.32;100.00;98149.75;4399680;32;20038;-72
2022/04/23 07:20:17;;;;;;;16.20;7.32;;;;;;;8.28;100.00;98119.13;4401659;32;20039;-72
2022/04/23 07:25:35;;;;;;;24.02;7.53;;;;;;;8.65;100.00;98121.84;4402177;32;20082;-72
2022/04/23 07:28:02;;;;;;;10.82;6.65;;;;;;;8.92;100.00;98150.47;4386346;32;20411;-72
2022/04/23 07:30:30;;;;;;;11.40;6.75;;;;;;;9.02;100.00;98158.56;4398257;32;20093;-75
2022/04/23 07:32:57;;;;;;;10.07;6.93;;;;;;;9.01;100.00;98142.72;4400668;32;20065;-71
2022/04/23 07:38:14;;;;;;;12.10;6.30;;;;;;;8.71;100.00;98158.38;4401955;32;20171;-71
2022/04/23 07:40:40;;;;;;;8.10;6.20;;;;;;;8.78;100.00;98157.34;4399347;32;20035;-72
2022/04/23 07:43:12;;;;;;;9.98;5.37;;;;;;;8.72;100.00;98149.25;4400426;32;20842;-74
2022/04/23 07:45:40;;;;;;;11.23;5.75;;;;;;;8.76;100.00;98148.72;4401390;32;20384;-74
2022/04/23 07:48:08;;;;;;;10.07;4.97;;;;;;;8.88;100.00;98158.19;4398941;32;20052;-75
2022/04/23 07:50:36;;;;;;;10.02;5.87;;;;;;;8.78;100.00;98152.78;4399567;32;20061;-74
2022/04/23 07:53:04;;;;;;;6.93;5.37;;;;;;;8.90;100.00;98155.25;4402128;32;20047;-74
2022/04/23 07:55:36;;;;;;;8.02;5.82;;;;;;;8.91;100.00;98152.31;4395091;32;20069;-74
2022/04/23 07:58:04;;;;;;;7.37;5.87;;;;;;;8.84;100.00;98150.94;4374434;32;20378;-74
2022/04/23 08:00:31;;;;;;;9.40;6.35;;;;;;;8.86;100.00;98148.81;4385304;32;20437;-73
2022/04/23 08:02:58;;;;;;;9.30;6.05;;;;;;;8.72;100.00;98103.63;4398725;32;20038;-73
2022/04/23 08:05:25;;;;;;;9.75;6.97;;;;;;;8.84;100.00;98110.66;4401173;32;20368;-72
2022/04/23 08:07:51;;;;;;;7.87;5.72;;;;;;;9.19;100.00;98133.37;4401601;32;20068;-70
2022/04/23 08:10:18;;;;;;;11.50;7.18;;;;;;;9.34;100.00;98144.19;4397882;32;20035;-74
2022/04/23 08:12:44;;;;;;;10.90;4.95;;;;;;;9.49;100.00;98145.31;4394621;32;20051;-74
2022/04/23 08:15:12;;;;;;;8.88;5.87;;;;;;;9.61;100.00;98137.84;4399981;32;20080;-73
2022/04/23 08:17:39;;;;;;;6.95;5.22;;;;;;;9.50;100.00;98141.56;4399898;32;20063;-73
2022/04/23 08:20:06;;;;;;;6.55;5.12;;;;;;;9.69;100.00;98148.06;4399817;32;20470;-73
2022/04/23 08:22:34;;;;;;;7.03;4.97;;;;;;;9.64;100.00;98132.72;4390795;32;20065;-72
2022/04/23 08:25:07;;;;;;;5.60;4.50;;;;;;;9.68;100.00;98142.94;4392551;32;20039;-73
2022/04/23 08:27:50;;;;;;;7.07;5.25;;;;;;;9.43;100.00;98099.62;4399733;32;20104;-73
2022/04/23 08:30:37;;;;;;;4.47;3.85;;;;;;;9.64;100.00;98140.00;4399900;32;20105;-73
2022/04/23 08:33:05;;;;;;;5.80;4.12;;;;;;;9.68;100.00;98137.56;4399074;32;20361;-72
2022/04/23 08:35:36;;;;;;;5.20;4.70;;;;;;;9.77;100.00;98144.06;4383031;32;20054;-77
2022/04/23 08:38:04;;;;;;;9.43;5.00;;;;;;;9.68;100.00;98132.19;4396553;32;20502;-73
2022/04/23 08:40:41;;;;;;;6.15;4.37;;;;;;;9.76;100.00;98139.75;4397969;32;20035;-73
2022/04/23 08:43:08;;;;;;;8.40;5.25;;;;;;;9.73;100.00;98135.72;4398660;32;20425;-76
2022/04/23 08:45:39;;;;;;;12.27;5.12;;;;;;;9.58;100.00;98090.78;4383096;32;20043;-74
2022/04/23 08:48:11;;;;;;;8.13;5.25;;;;;;;9.59;100.00;98084.34;4391708;32;20383;-74
2022/04/23 08:50:41;;;;;;;7.93;5.53;;;;;;;9.99;100.00;98122.31;4370589;32;20031;-73
2022/04/23 08:53:20;;;;;;;6.47;5.43;;;;;;;9.73;100.00;98086.50;4381572;32;20027;-74
2022/04/23 08:55:48;;;;;;;6.30;3.83;;;;;;;10.02;100.00;98129.84;4387163;32;20061;-73
2022/04/23 08:58:15;;;;;;;4.90;4.15;;;;;;;10.04;100.00;98114.22;4397042;32;20077;-74
2022/04/23 09:00:41;;;;;;;10.05;5.40;;;;;;;10.26;100.00;98115.84;4399620;32;20043;-75
2022/04/23 09:03:15;;;;;;;9.55;4.60;;;;;;;10.38;100.00;98113.72;4398825;32;20068;-73
2022/04/23 09:05:43;;;;;;;9.82;5.85;;;;;;;10.27;100.00;98101.31;4379007;32;20027;-74
2022/04/23 09:08:10;;;;;;;8.45;6.03;;;;;;;10.22;100.00;98087.87;4383930;32;20356;-73
2022/04/23 09:10:44;;;;;;;6.30;5.43;;;;;;;10.35;100.00;98103.47;4393923;32;20047;-72
2022/04/23 09:13:23;;;;;;;8.02;4.93;;;;;;;10.36;100.00;98115.88;4397104;32;20051;-74
2022/04/23 09:24:20;;;;;;;6.28;3.62;;;;;;;10.75;100.00;98101.78;4398330;32;20060;-72
2022/04/23 09:27:03;;;;;;;5.00;3.95;;;;;;;10.90;100.00;98115.22;4412830;32;20198;-73
2022/04/23 09:29:30;;;;;;;6.05;5.05;;;;;;;10.82;100.00;98110.41;4412856;32;20383;-70
2022/04/23 09:32:19;;;;;;;6.82;4.75;;;;;;;10.45;100.00;98038.91;4410258;32;20118;-77
2022/04/23 09:34:46;;;;;;;6.12;4.22;;;;;;;10.90;100.00;98091.00;4381976;32;20094;-73
2022/04/23 09:37:12;;;;;;;5.25;4.03;;;;;;;11.07;100.00;98087.97;4389922;32;20165;-73
2022/04/23 09:39:38;;;;;;;5.45;4.12;;;;;;;11.26;100.00;98100.81;4383835;32;20031;-77
2022/04/23 09:42:12;;;;;;;7.07;4.57;;;;;;;11.07;100.00;98033.28;4384294;32;20077;-74
2022/04/23 09:44:46;;;;;;;5.78;4.70;;;;;;;11.54;100.00;98102.00;4392006;32;20072;-72
2022/04/23 09:47:31;;;;;;;9.90;4.97;;;;;;;11.25;100.00;98070.38;4390414;32;20043;-75
2022/04/23 09:49:58;;;;;;;7.62;4.72;;;;;;;11.39;100.00;98099.41;4390606;32;20028;-72
2022/04/23 09:52:30;;;;;;;6.25;3.42;;;;;;;11.08;100.00;98067.22;4391239;32;20050;-73
2022/04/23 09:54:59;;;;;;;6.60;5.22;;;;;;;11.39;100.00;98089.44;4391200;32;20163;-72
2022/04/23 09:57:27;;;;;;;7.93;5.40;;;;;;;11.73;100.00;98104.88;4386797;32;20081;-72
2022/04/23 09:59:54;;;;;;;5.47;4.85;;;;;;;11.58;100.00;98073.44;4384520;32;20084;-72
2022/04/23 10:02:23;;;;;;;7.50;4.50;;;;;;;11.63;100.00;98116.53;4384981;32;20023;-71
2022/04/23 10:04:54;;;;;;;4.68;4.10;;;;;;;11.89;100.00;98116.34;4369029;32;20039;-72
2022/04/23 10:07:21;;;;;;;7.45;4.87;;;;;;;11.24;100.00;98068.75;4393493;32;20338;-71
2022/04/23 10:09:49;;;;;;;7.18;5.30;;;;;;;11.46;100.00;98105.31;4398095;32;20039;-71
2022/04/23 10:12:19;;;;;;;6.22;4.97;;;;;;;11.24;100.00;98076.03;4399744;32;20034;-73
2022/04/23 10:14:49;;;;;;;7.30;4.62;;;;;;;11.50;100.00;98100.16;4399327;32;20052;-72
2022/04/23 10:17:20;;;;;;;7.47;5.85;;;;;;;11.34;100.00;98070.59;4395220;32;20109;-72
2022/04/23 10:19:53;;;;;;;12.77;5.47;;;;;;;11.58;100.00;98092.28;4395604;32;20269;-72
2022/04/23 10:22:34;;;;;;;9.15;5.70;;;;;;;11.74;100.00;98079.53;4382040;32;20059;-72
2022/04/23 10:25:27;;;;;;;15.43;5.75;;;;;;;12.08;100.00;98067.16;4407881;32;20035;-71
2022/04/23 10:27:56;;;;;;;7.53;5.82;;;;;;;12.48;100.00;98113.75;4414018;32;20047;-74
2022/04/23 10:30:26;;;;;;;5.65;5.15;;;;;;;12.06;100.00;98107.09;4398198;32;20363;-72
2022/04/23 10:32:52;;;;;;;7.53;5.03;;;;;;;12.34;100.00;98082.00;4388413;32;20279;-72
2022/04/23 10:35:19;;;;;;;7.03;5.30;;;;;;;12.83;100.00;98098.28;4401594;32;20061;-73
2022/04/23 10:37:49;;;;;;;8.80;5.55;;;;;;;12.99;100.00;98093.53;4389305;32;20384;-73
2022/04/23 10:40:18;;;;;;;9.02;6.57;;;;;;;12.70;100.00;98073.56;4395851;32;20055;-75
2022/04/23 10:43:07;;;;;;;6.65;5.80;;;;;;;12.78;100.00;98101.03;4397825;32;20058;-74
2022/04/23 10:45:35;;;;;;;5.75;5.20;;;;;;;12.77;100.00;98112.94;4399037;32;20065;-74
2022/04/23 10:48:22;;;;;;;8.45;5.70;;;;;;;12.65;100.00;98100.63;4396460;32;20032;-73
2022/04/23 10:50:58;;;;;;;11.38;6.87;;;;;;;12.49;100.00;98104.56;4399910;32;20031;-72
2022/04/23 10:53:37;;;;;;;8.30;6.28;;;;;;;11.97;100.00;98086.13;4385973;32;20447;-77
2022/04/23 10:56:11;;;;;;;8.15;6.43;;;;;;;12.22;100.00;98073.50;4384348;32;20060;-73
2022/04/23 10:58:38;;;;;;;7.25;5.80;;;;;;;12.52;100.00;98104.00;4387592;32;20109;-73
2022/04/23 11:01:20;;;;;;;8.02;6.03;;;;;;;12.30;100.00;98070.19;4398683;32;20031;-75
2022/04/23 11:04:16;;;;;;;5.22;4.15;;;;;;;12.54;100.00;98097.22;4386036;32;20038;-72
2022/04/23 11:12:22;;;;;;;8.75;5.37;;;;;;;13.97;100.00;98114.66;4398344;32;20048;-72
2022/04/23 11:14:53;;;;;;;7.20;5.15;;;;;;;13.63;100.00;98091.34;4400081;32;20043;-73
2022/04/23 11:17:30;;;;;;;7.85;5.07;;;;;;;13.17;100.00;98064.91;4387364;32;20038;-73
2022/04/23 11:19:56;;;;;;;6.32;4.62;;;;;;;13.60;100.00;98073.00;4373281;32;20080;-72
2022/04/23 11:22:23;;;;;;;8.23;4.75;;;;;;;13.90;100.00;98087.19;4385210;32;20061;-72
2022/04/23 11:24:52;;;;;;;5.05;4.32;;;;;;;14.21;100.00;98102.94;4395161;32;20038;-72
2022/04/23 11:27:33;;;;;;;8.25;3.35;;;;;;;14.18;100.00;98066.41;4399637;32;20072;-74
2022/04/23 11:29:59;;;;;;;7.03;4.62;;;;;;;13.52;100.00;98096.09;4398592;32;20121;-72
2022/04/23 11:32:27;;;;;;;8.07;4.55;;;;;;;13.32;100.00;98089.03;4386815;32;20126;-72
2022/04/23 11:34:57;;;;;;;4.60;4.10;;;;;;;13.43;100.00;98052.69;4400579;32;20042;-72
2022/04/23 11:37:32;;;;;;;5.78;5.05;;;;;;;13.50;100.00;98090.19;4398969;32;20082;-72
2022/04/23 11:40:09;;;;;;;6.07;5.12;;;;;;;13.03;100.00;98089.94;4395677;32;20383;-71
2022/04/23 11:42:46;;;;;;;4.53;4.10;;;;;;;12.92;100.00;98087.66;4391042;32;20125;-74
2022/04/23 11:45:15;;;;;;;8.77;4.68;;;;;;;12.87;100.00;98077.69;4384001;32;20070;-72
2022/04/23 11:47:42;;;;;;;5.03;4.53;;;;;;;12.46;100.00;98030.34;4401513;32;20042;-72
2022/04/23 11:50:14;;;;;;;6.68;4.87;;;;;;;12.61;100.00;98064.47;4400505;32;20101;-72
2022/04/23 11:52:42;;;;;;;4.53;3.78;;;;;;;13.11;100.00;98088.50;4400408;32;20087;-75